Time;durP1;ratioP1;P1;durP2;ratioP2;P2;SDS_P1;SDS_P2;PMS_P1;PMS_P2;Temp;Humidity;BMP_temperature;BMP_pressure;BME280_temperature;BME280_humidity;BME280_pressure;Samples;Min_cycle;Max_cycle;Signal;HPM_P1;HPM_P2
2023/03/31 00:00:26;;;;;;;0.60;0.60;;;;;;;;;;5021916;28;20185;-78
2023/03/31 00:02:53;;;;;;;0.57;0.57;;;;;;;;;;5022210;28;20204;-78
2023/03/31 00:05:20;;;;;;;0.70;0.70;;;;;;;;;;5023255;28;20240;-79
2023/03/31 00:07:47;;;;;;;0.63;0.63;;;;;;;;;;5023792;28;20185;-79
2023/03/31 00:10:13;;;;;;;0.60;0.60;;;;;;;;;;5024858;28;20169;-79
2023/03/31 00:12:39;;;;;;;0.63;0.63;;;;;;;;;;5023549;28;20175;-79
2023/03/31 00:15:05;;;;;;;0.63;0.63;;;;;;;;;;5024648;28;20240;-79
2023/03/31 00:17:34;;;;;;;0.50;0.50;;;;;;;;;;5023968;28;20176;-79
2023/03/31 00:20:01;;;;;;;0.60;0.60;;;;;;;;;;5021990;28;20519;-79
2023/03/31 00:22:27;;;;;;;0.60;0.60;;;;;;;;;;5023376;28;20191;-78
2023/03/31 00:24:53;;;;;;;0.60;0.60;;;;;;;;;;5022895;28;20175;-78
2023/03/31 00:27:19;;;;;;;0.53;0.53;;;;;;;;;;5023331;28;20173;-79
2023/03/31 00:29:46;;;;;;;0.70;0.70;;;;;;;;;;5019534;28;20180;-79
2023/03/31 00:32:13;;;;;;;0.57;0.57;;;;;;;;;;5022987;28;20176;-79
2023/03/31 00:34:39;;;;;;;0.60;0.60;;;;;;;;;;5021700;28;20204;-79
2023/03/31 00:37:08;;;;;;;0.53;0.53;;;;;;;;;;5023684;28;20195;-79
2023/03/31 00:39:35;;;;;;;0.70;0.70;;;;;;;;;;5024047;28;20192;-79
2023/03/31 00:42:02;;;;;;;0.60;0.60;;;;;;;;;;5022847;28;20176;-78
2023/03/31 00:44:29;;;;;;;0.80;0.80;;;;;;;;;;5022769;28;20204;-79
2023/03/31 00:47:10;;;;;;;0.50;0.50;;;;;;;;;;5022630;28;20183;-78
2023/03/31 00:49:45;;;;;;;0.60;0.60;;;;;;;;;;5022720;28;20208;-78
2023/03/31 00:52:12;;;;;;;0.60;0.60;;;;;;;;;;5022952;28;20180;-79
2023/03/31 00:54:40;;;;;;;0.50;0.50;;;;;;;;;;5021542;28;20223;-79
2023/03/31 00:57:07;;;;;;;0.70;0.70;;;;;;;;;;5022393;28;20197;-78
2023/03/31 00:59:36;;;;;;;0.60;0.60;;;;;;;;;;5021915;28;20532;-79
2023/03/31 01:02:02;;;;;;;0.60;0.60;;;;;;;;;;5022389;28;20180;-78
2023/03/31 01:04:35;;;;;;;0.67;0.67;;;;;;;;;;5022535;28;20234;-81
2023/03/31 01:07:11;;;;;;;0.60;0.60;;;;;;;;;;5014696;28;20176;-78
2023/03/31 01:09:38;;;;;;;0.60;0.60;;;;;;;;;;5015249;28;20187;-78
2023/03/31 01:12:06;;;;;;;0.60;0.60;;;;;;;;;;5014494;28;20177;-79
2023/03/31 01:14:32;;;;;;;0.70;0.70;;;;;;;;;;5013854;28;20609;-79
2023/03/31 01:16:58;;;;;;;0.60;0.60;;;;;;;;;;5014089;28;20211;-79
2023/03/31 01:19:42;;;;;;;0.53;0.53;;;;;;;;;;5014146;28;20607;-78
2023/03/31 01:22:08;;;;;;;0.60;0.60;;;;;;;;;;5013957;28;20176;-78
2023/03/31 01:25:00;;;;;;;0.70;0.70;;;;;;;;;;5013338;28;20359;-78
2023/03/31 01:27:38;;;;;;;0.50;0.50;;;;;;;;;;5013671;28;20175;-79
2023/03/31 01:30:18;;;;;;;0.60;0.60;;;;;;;;;;5014388;28;20180;-79
2023/03/31 01:33:02;;;;;;;0.60;0.60;;;;;;;;;;5015623;28;20187;-78
2023/03/31 01:35:31;;;;;;;0.50;0.50;;;;;;;;;;5017696;28;20216;-78
2023/03/31 01:38:21;;;;;;;0.60;0.60;;;;;;;;;;5016224;28;20219;-78
2023/03/31 01:41:00;;;;;;;0.50;0.50;;;;;;;;;;5014164;28;20592;-79
2023/03/31 01:43:31;;;;;;;0.57;0.57;;;;;;;;;;5014773;28;20266;-78
2023/03/31 01:46:02;;;;;;;0.50;0.50;;;;;;;;;;5016935;28;20719;-78
2023/03/31 01:48:32;;;;;;;0.53;0.53;;;;;;;;;;5018534;28;20180;-77
2023/03/31 01:51:06;;;;;;;0.60;0.60;;;;;;;;;;5020297;28;20181;-77
2023/03/31 01:53:54;;;;;;;0.60;0.60;;;;;;;;;;5019821;28;20200;-77
2023/03/31 01:56:28;;;;;;;0.60;0.60;;;;;;;;;;5019438;28;20718;-77
2023/03/31 01:59:02;;;;;;;0.60;0.60;;;;;;;;;;5018658;28;20671;-77
2023/03/31 02:01:31;;;;;;;0.60;0.60;;;;;;;;;;5017844;28;20204;-77
2023/03/31 02:04:00;;;;;;;0.60;0.60;;;;;;;;;;5016632;28;20676;-78
2023/03/31 02:06:33;;;;;;;0.50;0.50;;;;;;;;;;5017161;28;20647;-78
2023/03/31 02:09:05;;;;;;;0.60;0.60;;;;;;;;;;5021097;28;20223;-77
2023/03/31 02:11:32;;;;;;;0.60;0.60;;;;;;;;;;5022012;28;20173;-77
2023/03/31 02:14:00;;;;;;;0.60;0.60;;;;;;;;;;5019811;28;20196;-78
2023/03/31 02:16:27;;;;;;;0.60;0.60;;;;;;;;;;5022281;28;20236;-77
2023/03/31 02:19:01;;;;;;;0.70;0.70;;;;;;;;;;5022070;28;20169;-78
2023/03/31 02:21:29;;;;;;;0.67;0.67;;;;;;;;;;5023238;28;20260;-77
2023/03/31 02:23:55;;;;;;;0.50;0.50;;;;;;;;;;5020097;28;20288;-78
2023/03/31 02:26:26;;;;;;;0.60;0.60;;;;;;;;;;5029085;28;20203;-78
2023/03/31 02:28:52;;;;;;;0.60;0.60;;;;;;;;;;5037683;28;20161;-78
2023/03/31 02:31:26;;;;;;;0.60;0.60;;;;;;;;;;5040203;28;20165;-79
2023/03/31 02:33:52;;;;;;;0.67;0.67;;;;;;;;;;5032319;28;20291;-79
2023/03/31 02:36:18;;;;;;;0.60;0.60;;;;;;;;;;5019337;28;20258;-78
2023/03/31 02:38:49;;;;;;;0.50;0.50;;;;;;;;;;5018347;28;20204;-78
2023/03/31 02:41:16;;;;;;;0.50;0.50;;;;;;;;;;5018859;28;20207;-79
2023/03/31 02:43:42;;;;;;;0.50;0.50;;;;;;;;;;5018019;28;20200;-79
2023/03/31 02:46:08;;;;;;;0.60;0.60;;;;;;;;;;5018535;28;20185;-79
2023/03/31 02:48:36;;;;;;;0.60;0.60;;;;;;;;;;5018553;28;20176;-78
2023/03/31 02:51:08;;;;;;;0.60;0.60;;;;;;;;;;5018039;28;20521;-79
2023/03/31 02:54:07;;;;;;;0.60;0.60;;;;;;;;;;5017000;28;20698;-79
2023/03/31 02:56:51;;;;;;;0.60;0.60;;;;;;;;;;5016407;28;20591;-79
2023/03/31 02:59:36;;;;;;;0.60;0.60;;;;;;;;;;5018251;28;20248;-79
2023/03/31 03:02:04;;;;;;;0.60;0.60;;;;;;;;;;5017183;28;20257;-79
2023/03/31 03:04:51;;;;;;;0.60;0.60;;;;;;;;;;5016703;28;20197;-81
2023/03/31 03:07:23;;;;;;;0.60;0.60;;;;;;;;;;5017260;28;20255;-78
2023/03/31 03:10:05;;;;;;;0.60;0.60;;;;;;;;;;5017535;28;20187;-79
2023/03/31 03:12:34;;;;;;;0.70;0.70;;;;;;;;;;5016451;28;20184;-79
2023/03/31 03:15:02;;;;;;;0.43;0.43;;;;;;;;;;5016639;28;20668;-79
2023/03/31 03:17:31;;;;;;;0.57;0.57;;;;;;;;;;5017053;28;20184;-78
2023/03/31 03:19:59;;;;;;;0.60;0.60;;;;;;;;;;5017062;28;20219;-78
2023/03/31 03:22:25;;;;;;;0.50;0.50;;;;;;;;;;5016522;28;20651;-79
2023/03/31 03:24:52;;;;;;;0.60;0.60;;;;;;;;;;5017005;28;20193;-79
2023/03/31 03:27:18;;;;;;;0.60;0.60;;;;;;;;;;5016854;28;20683;-79
2023/03/31 03:29:44;;;;;;;0.60;0.60;;;;;;;;;;5016483;28;20181;-78
2023/03/31 03:32:10;;;;;;;0.60;0.60;;;;;;;;;;5016747;28;20199;-81
2023/03/31 03:34:36;;;;;;;0.70;0.70;;;;;;;;;;5016259;28;20201;-78
2023/03/31 03:37:02;;;;;;;0.60;0.60;;;;;;;;;;5016215;28;20223;-79
2023/03/31 03:39:29;;;;;;;0.53;0.53;;;;;;;;;;5016185;28;20703;-79
2023/03/31 03:41:55;;;;;;;0.63;0.63;;;;;;;;;;5015750;28;20184;-79
2023/03/31 03:44:21;;;;;;;0.67;0.67;;;;;;;;;;5015890;28;20366;-79
2023/03/31 03:46:47;;;;;;;0.70;0.70;;;;;;;;;;5017388;28;20207;-78
2023/03/31 03:49:13;;;;;;;0.70;0.70;;;;;;;;;;5016598;28;20674;-79
2023/03/31 03:51:39;;;;;;;0.40;0.40;;;;;;;;;;5016331;28;20180;-78
2023/03/31 03:54:05;;;;;;;0.70;0.70;;;;;;;;;;5016181;28;20545;-78
2023/03/31 03:56:31;;;;;;;0.70;0.70;;;;;;;;;;5016638;28;20296;-78
2023/03/31 03:58:57;;;;;;;0.60;0.60;;;;;;;;;;5015783;28;20204;-79
2023/03/31 04:01:23;;;;;;;0.70;0.70;;;;;;;;;;5016682;28;20176;-78
2023/03/31 04:03:49;;;;;;;0.73;0.73;;;;;;;;;;5016816;28;20346;-78
2023/03/31 04:06:15;;;;;;;0.50;0.50;;;;;;;;;;5017404;28;20184;-78
2023/03/31 04:08:41;;;;;;;0.60;0.60;;;;;;;;;;5016980;28;20639;-78
2023/03/31 04:11:16;;;;;;;0.60;0.60;;;;;;;;;;5016708;28;20313;-78
2023/03/31 04:13:42;;;;;;;0.53;0.53;;;;;;;;;;5015078;28;20207;-78
2023/03/31 04:16:07;;;;;;;0.70;0.70;;;;;;;;;;5015734;28;20207;-78
2023/03/31 04:18:35;;;;;;;0.70;0.70;;;;;;;;;;5015985;28;20682;-78
2023/03/31 04:21:05;;;;;;;0.70;0.70;;;;;;;;;;5014809;28;20208;-78
2023/03/31 04:23:33;;;;;;;0.70;0.70;;;;;;;;;;5014560;28;20699;-78
2023/03/31 04:25:59;;;;;;;0.60;0.60;;;;;;;;;;5015731;28;20220;-78
2023/03/31 04:28:25;;;;;;;0.60;0.60;;;;;;;;;;5015367;28;20287;-78
2023/03/31 04:30:57;;;;;;;0.70;0.70;;;;;;;;;;5015587;28;20177;-78
2023/03/31 04:33:23;;;;;;;0.50;0.50;;;;;;;;;;5014365;28;20200;-79
2023/03/31 04:35:51;;;;;;;0.70;0.70;;;;;;;;;;5015092;28;20553;-78
2023/03/31 04:38:17;;;;;;;0.67;0.67;;;;;;;;;;5014963;28;20632;-78
2023/03/31 04:40:44;;;;;;;0.63;0.63;;;;;;;;;;5015411;28;20258;-78
2023/03/31 04:43:10;;;;;;;0.70;0.70;;;;;;;;;;5014300;28;20595;-78
2023/03/31 04:45:36;;;;;;;0.60;0.60;;;;;;;;;;5014905;28;20185;-78
2023/03/31 04:48:02;;;;;;;0.80;0.80;;;;;;;;;;5015244;28;20187;-78
2023/03/31 04:50:28;;;;;;;0.63;0.63;;;;;;;;;;5015003;28;20192;-78
2023/03/31 04:52:54;;;;;;;0.60;0.60;;;;;;;;;;5013726;28;20279;-79
2023/03/31 04:55:20;;;;;;;0.60;0.60;;;;;;;;;;5015076;28;20251;-78
2023/03/31 04:57:46;;;;;;;0.60;0.60;;;;;;;;;;5014848;28;20176;-78
2023/03/31 05:00:13;;;;;;;0.60;0.60;;;;;;;;;;5014616;28;20180;-78
2023/03/31 05:02:39;;;;;;;0.70;0.70;;;;;;;;;;5013717;28;20183;-78
2023/03/31 05:05:05;;;;;;;0.60;0.60;;;;;;;;;;5014806;28;20189;-78
2023/03/31 05:07:31;;;;;;;0.60;0.60;;;;;;;;;;5015871;28;20176;-79
2023/03/31 05:09:57;;;;;;;0.53;0.53;;;;;;;;;;5014492;28;20180;-78
2023/03/31 05:12:23;;;;;;;0.60;0.60;;;;;;;;;;5014121;28;20229;-79
2023/03/31 05:14:49;;;;;;;0.60;0.60;;;;;;;;;;5014302;28;20200;-78
2023/03/31 05:17:16;;;;;;;0.60;0.60;;;;;;;;;;5014199;28;20204;-79
2023/03/31 05:19:42;;;;;;;0.70;0.70;;;;;;;;;;5014469;28;20527;-79
2023/03/31 05:22:08;;;;;;;0.60;0.60;;;;;;;;;;5014705;28;20636;-79
2023/03/31 05:24:34;;;;;;;0.50;0.50;;;;;;;;;;5014469;28;20196;-79
2023/03/31 05:27:00;;;;;;;0.60;0.60;;;;;;;;;;5014849;28;20183;-79
2023/03/31 05:29:26;;;;;;;0.50;0.50;;;;;;;;;;5015703;28;20263;-79
2023/03/31 05:31:52;;;;;;;0.80;0.80;;;;;;;;;;5014988;28;20172;-78
2023/03/31 05:34:19;;;;;;;0.73;0.73;;;;;;;;;;5014380;28;20683;-79
2023/03/31 05:36:46;;;;;;;0.60;0.60;;;;;;;;;;5014647;28;20282;-79
2023/03/31 05:39:12;;;;;;;0.60;0.60;;;;;;;;;;5015012;28;20168;-79
2023/03/31 05:41:38;;;;;;;0.60;0.60;;;;;;;;;;5015055;28;20275;-79
2023/03/31 05:44:05;;;;;;;0.70;0.70;;;;;;;;;;5014304;28;20193;-79
2023/03/31 05:46:31;;;;;;;0.60;0.60;;;;;;;;;;5013601;28;20188;-79
2023/03/31 05:48:57;;;;;;;0.70;0.70;;;;;;;;;;5014627;28;20188;-78
2023/03/31 05:51:23;;;;;;;0.70;0.70;;;;;;;;;;5013201;28;20274;-78
2023/03/31 05:53:50;;;;;;;0.63;0.63;;;;;;;;;;5010932;28;20203;-79
2023/03/31 05:56:16;;;;;;;0.70;0.70;;;;;;;;;;5012437;28;20224;-78
2023/03/31 05:58:42;;;;;;;0.60;0.60;;;;;;;;;;5013614;28;20177;-80
2023/03/31 06:01:12;;;;;;;0.60;0.60;;;;;;;;;;5015257;28;20656;-80
2023/03/31 06:03:40;;;;;;;0.60;0.60;;;;;;;;;;5021391;28;20569;-78
2023/03/31 06:06:07;;;;;;;0.60;0.60;;;;;;;;;;5026370;28;20177;-79
2023/03/31 06:08:36;;;;;;;0.50;0.50;;;;;;;;;;5022991;28;20180;-78
2023/03/31 06:11:09;;;;;;;0.70;0.70;;;;;;;;;;5025803;28;20187;-80
2023/03/31 06:13:36;;;;;;;0.70;0.70;;;;;;;;;;5026825;28;20207;-79
2023/03/31 06:16:03;;;;;;;0.67;0.67;;;;;;;;;;5024289;28;20200;-78
2023/03/31 06:18:29;;;;;;;0.63;0.63;;;;;;;;;;5021077;28;20196;-77
2023/03/31 06:20:55;;;;;;;0.63;0.63;;;;;;;;;;5015717;28;20177;-77
2023/03/31 06:23:22;;;;;;;0.70;0.70;;;;;;;;;;5016041;28;20667;-78
2023/03/31 06:25:48;;;;;;;0.70;0.70;;;;;;;;;;5017192;28;20767;-80
2023/03/31 06:28:14;;;;;;;0.60;0.60;;;;;;;;;;5017237;28;20223;-81
2023/03/31 06:30:40;;;;;;;0.70;0.70;;;;;;;;;;5017458;28;20231;-79
2023/03/31 06:33:06;;;;;;;0.70;0.70;;;;;;;;;;5015513;28;20200;-78
2023/03/31 06:35:32;;;;;;;0.70;0.70;;;;;;;;;;5013585;28;20215;-79
2023/03/31 06:37:58;;;;;;;0.70;0.70;;;;;;;;;;5013364;28;20188;-79
2023/03/31 06:40:24;;;;;;;0.50;0.50;;;;;;;;;;5013924;28;20603;-79
2023/03/31 06:42:50;;;;;;;0.70;0.70;;;;;;;;;;5013312;28;20247;-79
2023/03/31 06:45:16;;;;;;;0.70;0.70;;;;;;;;;;5015152;28;20196;-79
2023/03/31 06:47:42;;;;;;;0.60;0.60;;;;;;;;;;5016548;28;20183;-79
2023/03/31 06:50:09;;;;;;;0.70;0.70;;;;;;;;;;5017157;28;20184;-78
2023/03/31 06:52:35;;;;;;;0.70;0.70;;;;;;;;;;5015812;28;20200;-79
2023/03/31 06:55:01;;;;;;;0.60;0.60;;;;;;;;;;5016058;28;20618;-79
2023/03/31 06:57:28;;;;;;;0.70;0.70;;;;;;;;;;5016295;28;20181;-77
2023/03/31 06:59:54;;;;;;;0.60;0.60;;;;;;;;;;5017749;28;20272;-78
2023/03/31 07:02:20;;;;;;;0.60;0.60;;;;;;;;;;5014636;28;20195;-77
2023/03/31 07:04:46;;;;;;;0.70;0.70;;;;;;;;;;5015036;28;20205;-78
2023/03/31 07:07:12;;;;;;;0.70;0.70;;;;;;;;;;5012401;28;20251;-79
2023/03/31 07:09:38;;;;;;;0.60;0.60;;;;;;;;;;5014756;28;20183;-79
2023/03/31 07:12:04;;;;;;;0.70;0.70;;;;;;;;;;5018052;28;20207;-79
2023/03/31 07:14:33;;;;;;;0.60;0.60;;;;;;;;;;5015032;28;20219;-79
2023/03/31 07:16:59;;;;;;;0.70;0.70;;;;;;;;;;5017664;28;20262;-80
2023/03/31 07:19:25;;;;;;;0.63;0.63;;;;;;;;;;5017950;28;20181;-79
2023/03/31 07:21:52;;;;;;;0.70;0.70;;;;;;;;;;5016814;28;20745;-80
2023/03/31 07:24:18;;;;;;;0.60;0.60;;;;;;;;;;5016700;28;20261;-79
2023/03/31 07:26:44;;;;;;;0.60;0.60;;;;;;;;;;5017027;28;20628;-80
2023/03/31 07:29:10;;;;;;;0.60;0.60;;;;;;;;;;5017032;28;20172;-79
2023/03/31 07:31:36;;;;;;;0.67;0.67;;;;;;;;;;5016792;28;20183;-79
2023/03/31 07:34:02;;;;;;;0.60;0.60;;;;;;;;;;5018314;28;20204;-80
2023/03/31 07:36:29;;;;;;;0.50;0.50;;;;;;;;;;5017757;28;20251;-81
2023/03/31 07:38:55;;;;;;;0.60;0.60;;;;;;;;;;5017515;28;20648;-81
2023/03/31 07:41:21;;;;;;;0.60;0.60;;;;;;;;;;5017266;28;20199;-81
2023/03/31 07:43:47;;;;;;;0.70;0.70;;;;;;;;;;5016058;28;20181;-82
2023/03/31 07:46:18;;;;;;;0.60;0.60;;;;;;;;;;5017253;28;20271;-81
2023/03/31 07:48:45;;;;;;;0.60;0.60;;;;;;;;;;5016166;28;20191;-81
2023/03/31 07:51:12;;;;;;;0.70;0.70;;;;;;;;;;5015822;28;20188;-80
2023/03/31 07:53:38;;;;;;;0.70;0.70;;;;;;;;;;5017105;28;20200;-80
2023/03/31 07:56:04;;;;;;;0.60;0.60;;;;;;;;;;5018093;28;20215;-80
2023/03/31 07:58:30;;;;;;;0.60;0.60;;;;;;;;;;5017056;28;20560;-81
2023/03/31 08:00:56;;;;;;;0.60;0.60;;;;;;;;;;5017515;28;20207;-81
2023/03/31 08:03:22;;;;;;;0.60;0.60;;;;;;;;;;5016857;28;20200;-83
2023/03/31 08:05:51;;;;;;;0.70;0.70;;;;;;;;;;5016605;28;20185;-81
2023/03/31 08:08:17;;;;;;;0.50;0.50;;;;;;;;;;5017609;28;20180;-81
2023/03/31 08:10:43;;;;;;;0.50;0.50;;;;;;;;;;5016666;28;20238;-81
2023/03/31 08:13:09;;;;;;;0.50;0.50;;;;;;;;;;5017425;28;20666;-79
2023/03/31 08:15:35;;;;;;;0.60;0.60;;;;;;;;;;5019160;28;20215;-78
2023/03/31 08:18:02;;;;;;;0.40;0.40;;;;;;;;;;5026069;28;20204;-80
2023/03/31 08:20:28;;;;;;;0.50;0.50;;;;;;;;;;5029342;28;20560;-79
2023/03/31 08:22:54;;;;;;;0.50;0.50;;;;;;;;;;5027659;28;20195;-80
2023/03/31 08:25:20;;;;;;;0.40;0.40;;;;;;;;;;5028576;28;20181;-80
2023/03/31 08:27:49;;;;;;;0.40;0.40;;;;;;;;;;5022685;28;20232;-81
2023/03/31 08:30:16;;;;;;;0.40;0.40;;;;;;;;;;5037251;28;20181;-80
2023/03/31 08:32:42;;;;;;;0.40;0.40;;;;;;;;;;5037145;28;20173;-79
2023/03/31 08:35:08;;;;;;;0.50;0.50;;;;;;;;;;5036596;28;20208;-81
2023/03/31 08:37:35;;;;;;;0.40;0.40;;;;;;;;;;5020102;28;20188;-80
2023/03/31 08:40:04;;;;;;;0.30;0.30;;;;;;;;;;5012038;28;20639;-79
2023/03/31 08:42:30;;;;;;;0.40;0.40;;;;;;;;;;5015489;28;20172;-83
2023/03/31 08:45:10;;;;;;;0.40;0.40;;;;;;;;;;5016643;28;20307;-80
2023/03/31 08:47:36;;;;;;;0.40;0.40;;;;;;;;;;5012192;28;20177;-80
2023/03/31 08:50:06;;;;;;;0.30;0.30;;;;;;;;;;5022218;28;20182;-81
2023/03/31 08:52:36;;;;;;;0.40;0.40;;;;;;;;;;5020525;28;20175;-79
2023/03/31 08:55:26;;;;;;;0.30;0.30;;;;;;;;;;5012817;28;20180;-79
2023/03/31 08:57:52;;;;;;;0.30;0.30;;;;;;;;;;5019430;28;20713;-80
2023/03/31 09:00:18;;;;;;;0.40;0.40;;;;;;;;;;5014406;28;20176;-80
2023/03/31 09:02:48;;;;;;;0.40;0.40;;;;;;;;;;5028492;28;20179;-80
2023/03/31 09:05:14;;;;;;;0.30;0.30;;;;;;;;;;5018476;28;20187;-81
2023/03/31 09:07:43;;;;;;;0.40;0.40;;;;;;;;;;5020048;28;20181;-81
2023/03/31 09:10:09;;;;;;;0.37;0.37;;;;;;;;;;5017317;28;20790;-83
2023/03/31 09:12:43;;;;;;;0.40;0.40;;;;;;;;;;5014728;28;20184;-83
2023/03/31 09:15:32;;;;;;;0.40;0.40;;;;;;;;;;5031675;28;20172;-82
2023/03/31 09:18:03;;;;;;;0.30;0.30;;;;;;;;;;5029999;28;20215;-79
2023/03/31 09:20:34;;;;;;;0.40;0.40;;;;;;;;;;5011020;28;20181;-82
2023/03/31 09:23:14;;;;;;;0.37;0.37;;;;;;;;;;5008421;28;20231;-82
2023/03/31 09:25:41;;;;;;;0.40;0.40;;;;;;;;;;5028007;28;20278;-79
2023/03/31 09:28:13;;;;;;;0.33;0.33;;;;;;;;;;5022766;28;21015;-82
2023/03/31 09:30:41;;;;;;;0.40;0.40;;;;;;;;;;5020313;28;20174;-81
2023/03/31 09:33:18;;;;;;;0.33;0.33;;;;;;;;;;5013307;28;20756;-81
2023/03/31 09:35:43;;;;;;;0.40;0.40;;;;;;;;;;5011546;28;20214;-82
2023/03/31 09:38:11;;;;;;;0.50;0.50;;;;;;;;;;5015086;28;20275;-79
2023/03/31 09:40:37;;;;;;;0.40;0.40;;;;;;;;;;5027140;28;20274;-82
2023/03/31 09:43:05;;;;;;;0.33;0.33;;;;;;;;;;5016540;28;20296;-82
2023/03/31 09:45:32;;;;;;;0.40;0.40;;;;;;;;;;5013504;28;20188;-81
2023/03/31 09:48:00;;;;;;;0.43;0.43;;;;;;;;;;5016163;28;20184;-81
2023/03/31 09:50:27;;;;;;;0.50;0.50;;;;;;;;;;5016457;28;20264;-80
2023/03/31 09:52:56;;;;;;;0.43;0.43;;;;;;;;;;5015920;28;20200;-80
2023/03/31 09:55:24;;;;;;;0.40;0.40;;;;;;;;;;5016349;28;20211;-81
2023/03/31 09:57:51;;;;;;;0.50;0.50;;;;;;;;;;5013536;28;20184;-83
2023/03/31 10:00:19;;;;;;;0.43;0.43;;;;;;;;;;5013794;28;20656;-82
2023/03/31 10:03:02;;;;;;;0.40;0.40;;;;;;;;;;5014545;28;20250;-82
2023/03/31 10:05:40;;;;;;;0.50;0.50;;;;;;;;;;5012680;28;20683;-82
2023/03/31 10:08:21;;;;;;;0.40;0.40;;;;;;;;;;5014484;28;20168;-81
2023/03/31 10:10:49;;;;;;;0.30;0.30;;;;;;;;;;5027675;28;20177;-80
2023/03/31 10:13:47;;;;;;;0.30;0.30;;;;;;;;;;5031211;28;20207;-81
2023/03/31 10:16:21;;;;;;;0.40;0.40;;;;;;;;;;5021849;28;20216;-82
2023/03/31 10:18:48;;;;;;;0.30;0.30;;;;;;;;;;5011369;28;20177;-82
2023/03/31 10:21:27;;;;;;;0.40;0.40;;;;;;;;;;5017419;28;20276;-82
2023/03/31 10:23:55;;;;;;;0.30;0.30;;;;;;;;;;5012017;28;20196;-81
2023/03/31 10:26:22;;;;;;;0.43;0.43;;;;;;;;;;5012597;28;20227;-82
2023/03/31 10:28:51;;;;;;;0.40;0.40;;;;;;;;;;5012219;28;20298;-82
2023/03/31 10:31:17;;;;;;;0.30;0.30;;;;;;;;;;5013418;28;20253;-80
2023/03/31 10:33:45;;;;;;;0.40;0.40;;;;;;;;;;5022935;28;20514;-82
2023/03/31 10:36:17;;;;;;;0.30;0.30;;;;;;;;;;5018830;28;20216;-81
2023/03/31 10:38:44;;;;;;;0.30;0.30;;;;;;;;;;5019062;28;20183;-81
2023/03/31 10:41:10;;;;;;;0.40;0.40;;;;;;;;;;5019208;28;20243;-83
2023/03/31 10:43:41;;;;;;;0.50;0.50;;;;;;;;;;5019122;28;20212;-80
2023/03/31 10:46:07;;;;;;;0.50;0.50;;;;;;;;;;5018036;28;20188;-81
2023/03/31 10:48:37;;;;;;;0.40;0.40;;;;;;;;;;5017425;28;20226;-82
2023/03/31 10:51:26;;;;;;;0.40;0.40;;;;;;;;;;5021590;28;20545;-81
2023/03/31 10:53:53;;;;;;;0.40;0.40;;;;;;;;;;5016736;28;20274;-80
2023/03/31 10:56:22;;;;;;;0.40;0.40;;;;;;;;;;5018588;28;20219;-84
2023/03/31 10:58:58;;;;;;;0.40;0.40;;;;;;;;;;5021400;28;20188;-81
2023/03/31 11:01:24;;;;;;;0.40;0.40;;;;;;;;;;5020275;28;20180;-82
2023/03/31 11:04:05;;;;;;;0.30;0.30;;;;;;;;;;5020378;28;20263;-81
2023/03/31 11:06:37;;;;;;;0.37;0.37;;;;;;;;;;5017703;28;20250;-80
2023/03/31 11:09:03;;;;;;;0.30;0.30;;;;;;;;;;5019356;28;20204;-81
2023/03/31 11:11:55;;;;;;;0.50;0.50;;;;;;;;;;5016034;28;20260;-81
2023/03/31 11:14:31;;;;;;;0.40;0.40;;;;;;;;;;5018842;28;20209;-81
2023/03/31 11:16:57;;;;;;;0.47;0.47;;;;;;;;;;5018389;28;20218;-81
2023/03/31 11:19:41;;;;;;;0.50;0.50;;;;;;;;;;5017532;28;20200;-80
2023/03/31 11:22:08;;;;;;;0.47;0.47;;;;;;;;;;5020854;28;20608;-82
2023/03/31 11:24:34;;;;;;;0.40;0.40;;;;;;;;;;5022611;28;20200;-82
2023/03/31 11:27:18;;;;;;;0.50;0.50;;;;;;;;;;5020097;28;20212;-80
2023/03/31 11:29:50;;;;;;;0.50;0.50;;;;;;;;;;5020875;28;20199;-81
2023/03/31 11:32:35;;;;;;;0.50;0.50;;;;;;;;;;5020525;28;20180;-80
2023/03/31 11:35:29;;;;;;;0.60;0.60;;;;;;;;;;5025024;28;20184;-80
2023/03/31 11:37:55;;;;;;;0.60;0.60;;;;;;;;;;5023661;28;20215;-81
2023/03/31 11:40:30;;;;;;;0.70;0.70;;;;;;;;;;5016684;28;20184;-80
2023/03/31 11:43:15;;;;;;;0.60;0.60;;;;;;;;;;5016668;28;20234;-81
2023/03/31 11:45:44;;;;;;;0.70;0.70;;;;;;;;;;5016734;28;20173;-82
2023/03/31 11:48:15;;;;;;;0.60;0.60;;;;;;;;;;5017518;28;20671;-80
2023/03/31 11:50:44;;;;;;;0.67;0.67;;;;;;;;;;5016858;28;20555;-80
2023/03/31 11:53:19;;;;;;;0.70;0.70;;;;;;;;;;5033069;28;20200;-83
2023/03/31 11:55:48;;;;;;;0.60;0.60;;;;;;;;;;5032336;28;20200;-82
2023/03/31 11:58:27;;;;;;;0.53;0.53;;;;;;;;;;5016501;28;20180;-82
2023/03/31 12:01:12;;;;;;;0.60;0.60;;;;;;;;;;5016448;28;20630;-80
2023/03/31 12:03:43;;;;;;;0.60;0.60;;;;;;;;;;5013018;28;20545;-82
2023/03/31 12:06:17;;;;;;;0.80;0.80;;;;;;;;;;5014072;28;20181;-81
2023/03/31 12:08:58;;;;;;;0.70;0.70;;;;;;;;;;5018574;28;20566;-79
2023/03/31 12:11:37;;;;;;;0.60;0.60;;;;;;;;;;5019502;28;20778;-78
2023/03/31 12:14:24;;;;;;;0.50;0.50;;;;;;;;;;5032189;28;20513;-79
2023/03/31 12:16:55;;;;;;;0.60;0.60;;;;;;;;;;5031881;28;20212;-79
2023/03/31 12:19:26;;;;;;;0.50;0.50;;;;;;;;;;5016456;28;20188;-83
2023/03/31 12:21:55;;;;;;;0.60;0.60;;;;;;;;;;5024155;28;20180;-80
2023/03/31 12:24:21;;;;;;;0.60;0.60;;;;;;;;;;5029932;28;20197;-81
2023/03/31 12:26:56;;;;;;;0.50;0.50;;;;;;;;;;5033100;28;20245;-80
2023/03/31 12:29:22;;;;;;;0.40;0.40;;;;;;;;;;5022692;28;20565;-81
2023/03/31 12:31:50;;;;;;;0.47;0.47;;;;;;;;;;5024057;28;20180;-81
2023/03/31 12:34:17;;;;;;;0.60;0.60;;;;;;;;;;5020992;28;20207;-80
2023/03/31 12:36:43;;;;;;;0.40;0.40;;;;;;;;;;5019600;28;20592;-80
2023/03/31 12:39:24;;;;;;;0.50;0.50;;;;;;;;;;5021451;28;20694;-80
2023/03/31 12:42:09;;;;;;;0.50;0.50;;;;;;;;;;5017161;28;20175;-81
2023/03/31 12:44:38;;;;;;;0.50;0.50;;;;;;;;;;5018731;28;20298;-80
2023/03/31 12:47:04;;;;;;;0.60;0.60;;;;;;;;;;5035407;28;20722;-79
2023/03/31 12:49:30;;;;;;;0.40;0.40;;;;;;;;;;5023296;28;20176;-79
2023/03/31 12:52:02;;;;;;;0.57;0.57;;;;;;;;;;5035553;28;20169;-79
2023/03/31 12:54:34;;;;;;;0.60;0.60;;;;;;;;;;5032185;28;20200;-80
2023/03/31 12:57:00;;;;;;;0.40;0.40;;;;;;;;;;5024882;28;20215;-80
2023/03/31 12:59:36;;;;;;;0.47;0.47;;;;;;;;;;5036482;28;20172;-79
2023/03/31 13:02:21;;;;;;;0.50;0.50;;;;;;;;;;5025081;28;20226;-80
2023/03/31 13:04:49;;;;;;;0.47;0.47;;;;;;;;;;5024715;28;20706;-81
2023/03/31 13:07:25;;;;;;;0.60;0.60;;;;;;;;;;5033475;28;20226;-80
2023/03/31 13:09:55;;;;;;;0.40;0.40;;;;;;;;;;5022862;28;20701;-79
2023/03/31 13:12:24;;;;;;;0.40;0.40;;;;;;;;;;5027612;28;20184;-80
2023/03/31 13:14:53;;;;;;;0.50;0.50;;;;;;;;;;5032125;28;20191;-80
2023/03/31 13:17:25;;;;;;;0.50;0.50;;;;;;;;;;5022020;28;20215;-80
2023/03/31 13:19:52;;;;;;;0.50;0.50;;;;;;;;;;5034026;28;20198;-79
2023/03/31 13:22:30;;;;;;;0.40;0.40;;;;;;;;;;5027122;28;20172;-80
2023/03/31 13:25:16;;;;;;;0.57;0.57;;;;;;;;;;5024976;28;20176;-80
2023/03/31 13:27:52;;;;;;;0.50;0.50;;;;;;;;;;5008687;28;20619;-79
2023/03/31 13:30:47;;;;;;;0.60;0.60;;;;;;;;;;5030690;28;20662;-80
2023/03/31 13:33:15;;;;;;;0.50;0.50;;;;;;;;;;5002343;28;20743;-80
2023/03/31 13:35:45;;;;;;;0.50;0.50;;;;;;;;;;5023363;28;20235;-80
2023/03/31 13:38:17;;;;;;;0.50;0.50;;;;;;;;;;5024305;28;20195;-79
2023/03/31 13:40:43;;;;;;;0.50;0.50;;;;;;;;;;5033638;28;20202;-79
2023/03/31 13:43:40;;;;;;;0.57;0.57;;;;;;;;;;5024860;28;20192;-81
2023/03/31 13:46:06;;;;;;;0.60;0.60;;;;;;;;;;5022495;28;20550;-81
2023/03/31 13:48:57;;;;;;;0.60;0.60;;;;;;;;;;5024366;28;20172;-82
2023/03/31 13:51:26;;;;;;;0.60;0.60;;;;;;;;;;5042232;28;20242;-83
2023/03/31 13:54:07;;;;;;;0.70;0.70;;;;;;;;;;5032453;28;20192;-83
2023/03/31 13:56:41;;;;;;;0.60;0.60;;;;;;;;;;5039465;28;20218;-81
2023/03/31 13:59:20;;;;;;;0.60;0.60;;;;;;;;;;5049967;28;20171;-84
2023/03/31 14:02:01;;;;;;;0.73;0.73;;;;;;;;;;5032875;28;20180;-80
2023/03/31 14:04:28;;;;;;;0.80;0.80;;;;;;;;;;5031088;28;20200;-82
2023/03/31 14:06:56;;;;;;;0.60;0.60;;;;;;;;;;5035674;28;20164;-82
2023/03/31 14:09:32;;;;;;;0.77;0.77;;;;;;;;;;5018306;28;20258;-82
2023/03/31 14:11:59;;;;;;;0.60;0.60;;;;;;;;;;5020905;28;20255;-82
2023/03/31 14:14:25;;;;;;;0.60;0.60;;;;;;;;;;5020404;28;20212;-81
2023/03/31 14:17:00;;;;;;;0.70;0.70;;;;;;;;;;5022853;28;20216;-81
2023/03/31 14:19:29;;;;;;;0.80;0.80;;;;;;;;;;5040553;28;20187;-81
2023/03/31 14:22:21;;;;;;;0.60;0.60;;;;;;;;;;5027314;28;20184;-80
2023/03/31 14:24:51;;;;;;;0.60;0.60;;;;;;;;;;5040792;28;20204;-79
2023/03/31 14:27:28;;;;;;;0.50;0.50;;;;;;;;;;5037495;28;20636;-79
2023/03/31 14:30:16;;;;;;;0.50;0.50;;;;;;;;;;5037023;28;20179;-80
2023/03/31 14:33:18;;;;;;;0.50;0.50;;;;;;;;;;5029138;28;20184;-81
2023/03/31 14:35:56;;;;;;;0.60;0.60;;;;;;;;;;5018115;28;20208;-81
2023/03/31 14:38:23;;;;;;;0.60;0.60;;;;;;;;;;5023867;28;20230;-80
2023/03/31 14:40:52;;;;;;;0.60;0.60;;;;;;;;;;5030871;28;20540;-80
2023/03/31 14:43:44;;;;;;;0.70;0.70;;;;;;;;;;5040291;28;20203;-79
2023/03/31 14:46:10;;;;;;;0.60;0.60;;;;;;;;;;5026906;28;20196;-81
2023/03/31 14:48:44;;;;;;;0.63;0.63;;;;;;;;;;5034511;28;20176;-80
2023/03/31 14:51:11;;;;;;;0.50;0.50;;;;;;;;;;5042386;28;20180;-80
2023/03/31 14:53:37;;;;;;;0.50;0.50;;;;;;;;;;5024786;28;20192;-79
2023/03/31 14:56:08;;;;;;;0.77;0.77;;;;;;;;;;5031600;28;20230;-79
2023/03/31 14:58:36;;;;;;;0.60;0.60;;;;;;;;;;5035237;28;20268;-80
2023/03/31 15:01:05;;;;;;;0.60;0.60;;;;;;;;;;5039395;28;20248;-80